sensor_id;sensor_type;location;lat;lon;timestamp;temperature;humidity
76607;DHT22;65498;50.916;4.698;2023-01-01T00:01:43;22.90;41.10
76607;DHT22;65498;50.916;4.698;2023-01-01T00:04:13;22.90;40.90
76607;DHT22;65498;50.916;4.698;2023-01-01T00:06:41;22.90;41.10
76607;DHT22;65498;50.916;4.698;2023-01-01T00:09:09;22.90;41.20
76607;DHT22;65498;50.916;4.698;2023-01-01T00:11:55;22.90;41.00
76607;DHT22;65498;50.916;4.698;2023-01-01T00:14:23;22.90;40.90
76607;DHT22;65498;50.916;4.698;2023-01-01T00:16:50;22.90;41.10
76607;DHT22;65498;50.916;4.698;2023-01-01T00:19:19;22.90;41.00
76607;DHT22;65498;50.916;4.698;2023-01-01T00:21:47;22.90;41.00
76607;DHT22;65498;50.916;4.698;2023-01-01T00:24:14;22.90;40.70
76607;DHT22;65498;50.916;4.698;2023-01-01T00:26:42;22.90;40.90
76607;DHT22;65498;50.916;4.698;2023-01-01T00:29:09;22.90;40.80
76607;DHT22;65498;50.916;4.698;2023-01-01T00:31:37;22.90;40.80
76607;DHT22;65498;50.916;4.698;2023-01-01T00:34:05;22.90;41.20
76607;DHT22;65498;50.916;4.698;2023-01-01T00:36:32;22.90;41.20
76607;DHT22;65498;50.916;4.698;2023-01-01T00:39:01;22.90;40.90
76607;DHT22;65498;50.916;4.698;2023-01-01T00:41:29;22.90;41.20
76607;DHT22;65498;50.916;4.698;2023-01-01T00:43:57;22.90;41.00
76607;DHT22;65498;50.916;4.698;2023-01-01T00:46:25;22.90;41.00
76607;DHT22;65498;50.916;4.698;2023-01-01T00:48:52;22.90;41.10
76607;DHT22;65498;50.916;4.698;2023-01-01T00:51:20;22.90;41.10
76607;DHT22;65498;50.916;4.698;2023-01-01T00:53:47;22.90;41.30
76607;DHT22;65498;50.916;4.698;2023-01-01T00:56:15;22.90;41.10
76607;DHT22;65498;50.916;4.698;2023-01-01T00:58:42;22.90;41.10
76607;DHT22;65498;50.916;4.698;2023-01-01T01:01:10;22.90;41.20
76607;DHT22;65498;50.916;4.698;2023-01-01T01:03:39;22.90;41.30
76607;DHT22;65498;50.916;4.698;2023-01-01T01:06:09;22.90;41.20
76607;DHT22;65498;50.916;4.698;2023-01-01T01:08:40;22.90;41.10
76607;DHT22;65498;50.916;4.698;2023-01-01T01:11:16;22.90;41.00
76607;DHT22;65498;50.916;4.698;2023-01-01T01:13:46;23.00;41.40
76607;DHT22;65498;50.916;4.698;2023-01-01T01:16:23;22.90;41.10
76607;DHT22;65498;50.916;4.698;2023-01-01T01:18:52;22.90;41.20
76607;DHT22;65498;50.916;4.698;2023-01-01T01:21:21;22.90;41.30
76607;DHT22;65498;50.916;4.698;2023-01-01T01:23:49;22.90;41.20
76607;DHT22;65498;50.916;4.698;2023-01-01T01:26:23;23.00;41.20
76607;DHT22;65498;50.916;4.698;2023-01-01T01:28:52;22.90;41.20
76607;DHT22;65498;50.916;4.698;2023-01-01T01:31:21;23.00;41.00
76607;DHT22;65498;50.916;4.698;2023-01-01T01:33:49;23.00;41.00
76607;DHT22;65498;50.916;4.698;2023-01-01T01:36:18;22.90;41.10
76607;DHT22;65498;50.916;4.698;2023-01-01T01:38:46;22.90;41.10
76607;DHT22;65498;50.916;4.698;2023-01-01T01:41:20;22.80;41.30
76607;DHT22;65498;50.916;4.698;2023-01-01T01:44:50;22.70;41.40
76607;DHT22;65498;50.916;4.698;2023-01-01T01:46:17;22.80;41.50
76607;DHT22;65498;50.916;4.698;2023-01-01T01:48:48;22.70;41.50
76607;DHT22;65498;50.916;4.698;2023-01-01T01:51:19;22.70;41.60
76607;DHT22;65498;50.916;4.698;2023-01-01T01:53:49;22.60;41.60
76607;DHT22;65498;50.916;4.698;2023-01-01T01:56:28;22.70;41.70
76607;DHT22;65498;50.916;4.698;2023-01-01T01:58:54;22.60;41.60
76607;DHT22;65498;50.916;4.698;2023-01-01T02:01:22;22.60;42.40
76607;DHT22;65498;50.916;4.698;2023-01-01T02:03:58;22.60;41.70
76607;DHT22;65498;50.916;4.698;2023-01-01T02:06:27;22.60;41.70
76607;DHT22;65498;50.916;4.698;2023-01-01T02:08:56;22.60;41.80
76607;DHT22;65498;50.916;4.698;2023-01-01T02:11:25;22.60;41.80
76607;DHT22;65498;50.916;4.698;2023-01-01T02:13:54;22.50;41.80
76607;DHT22;65498;50.916;4.698;2023-01-01T02:22:01;22.70;41.80
76607;DHT22;65498;50.916;4.698;2023-01-01T02:24:42;22.70;41.90
76607;DHT22;65498;50.916;4.698;2023-01-01T02:29:57;22.70;41.90
76607;DHT22;65498;50.916;4.698;2023-01-01T02:32:33;22.70;41.90
76607;DHT22;65498;50.916;4.698;2023-01-01T02:37:59;22.80;41.70
76607;DHT22;65498;50.916;4.698;2023-01-01T02:40:27;22.80;41.60
76607;DHT22;65498;50.916;4.698;2023-01-01T02:42:56;22.80;41.70
76607;DHT22;65498;50.916;4.698;2023-01-01T02:45:24;22.80;41.70
76607;DHT22;65498;50.916;4.698;2023-01-01T02:47:51;22.80;41.70
76607;DHT22;65498;50.916;4.698;2023-01-01T02:50:25;22.80;41.60
76607;DHT22;65498;50.916;4.698;2023-01-01T03:01:08;22.60;42.10
76607;DHT22;65498;50.916;4.698;2023-01-01T03:03:39;22.60;42.10
76607;DHT22;65498;50.916;4.698;2023-01-01T03:06:25;22.70;42.20
76607;DHT22;65498;50.916;4.698;2023-01-01T03:11:50;22.70;42.00
76607;DHT22;65498;50.916;4.698;2023-01-01T03:14:00;22.70;42.00
76607;DHT22;65498;50.916;4.698;2023-01-01T03:19:28;22.70;41.80
76607;DHT22;65498;50.916;4.698;2023-01-01T03:22:04;22.70;42.10
76607;DHT22;65498;50.916;4.698;2023-01-01T03:24:40;22.70;41.90
76607;DHT22;65498;50.916;4.698;2023-01-01T03:27:18;22.80;41.90
76607;DHT22;65498;50.916;4.698;2023-01-01T03:29:43;22.70;42.00
76607;DHT22;65498;50.916;4.698;2023-01-01T03:32:14;22.70;42.10
76607;DHT22;65498;50.916;4.698;2023-01-01T03:34:46;22.70;42.00
76607;DHT22;65498;50.916;4.698;2023-01-01T03:37:16;22.70;42.20
76607;DHT22;65498;50.916;4.698;2023-01-01T03:39:49;22.60;42.10
76607;DHT22;65498;50.916;4.698;2023-01-01T03:42:31;22.60;42.40
76607;DHT22;65498;50.916;4.698;2023-01-01T03:45:19;22.60;42.40
76607;DHT22;65498;50.916;4.698;2023-01-01T03:47:44;22.60;42.40
76607;DHT22;65498;50.916;4.698;2023-01-01T03:50:13;22.60;42.50
76607;DHT22;65498;50.916;4.698;2023-01-01T03:55:29;22.60;42.60
76607;DHT22;65498;50.916;4.698;2023-01-01T03:58:02;22.70;42.60
76607;DHT22;65498;50.916;4.698;2023-01-01T04:00:37;22.70;42.60
76607;DHT22;65498;50.916;4.698;2023-01-01T04:03:09;22.70;42.70
76607;DHT22;65498;50.916;4.698;2023-01-01T04:05:39;22.70;42.70
76607;DHT22;65498;50.916;4.698;2023-01-01T04:08:09;22.70;42.70
76607;DHT22;65498;50.916;4.698;2023-01-01T04:10:41;22.70;42.60
76607;DHT22;65498;50.916;4.698;2023-01-01T04:13:08;22.70;42.80
76607;DHT22;65498;50.916;4.698;2023-01-01T04:15:36;22.70;43.00
76607;DHT22;65498;50.916;4.698;2023-01-01T04:18:03;22.60;43.20
76607;DHT22;65498;50.916;4.698;2023-01-01T04:20:31;22.70;43.30
76607;DHT22;65498;50.916;4.698;2023-01-01T04:23:00;22.60;43.20
76607;DHT22;65498;50.916;4.698;2023-01-01T04:25:28;22.50;43.40
76607;DHT22;65498;50.916;4.698;2023-01-01T04:27:56;22.50;43.40
76607;DHT22;65498;50.916;4.698;2023-01-01T04:30:24;22.50;43.60
76607;DHT22;65498;50.916;4.698;2023-01-01T04:32:54;22.50;43.50
76607;DHT22;65498;50.916;4.698;2023-01-01T04:35:21;22.50;43.50
76607;DHT22;65498;50.916;4.698;2023-01-01T04:37:49;22.60;43.60
76607;DHT22;65498;50.916;4.698;2023-01-01T04:40:17;22.60;43.50
76607;DHT22;65498;50.916;4.698;2023-01-01T04:42:44;22.60;43.40
76607;DHT22;65498;50.916;4.698;2023-01-01T04:45:12;22.60;44.10
76607;DHT22;65498;50.916;4.698;2023-01-01T04:47:40;22.60;43.60
76607;DHT22;65498;50.916;4.698;2023-01-01T04:50:08;22.70;43.50
76607;DHT22;65498;50.916;4.698;2023-01-01T04:52:36;22.70;43.50
76607;DHT22;65498;50.916;4.698;2023-01-01T04:55:04;22.70;43.40
76607;DHT22;65498;50.916;4.698;2023-01-01T04:57:32;22.60;43.50
76607;DHT22;65498;50.916;4.698;2023-01-01T04:59:59;22.60;43.70
76607;DHT22;65498;50.916;4.698;2023-01-01T05:02:27;22.60;43.50
76607;DHT22;65498;50.916;4.698;2023-01-01T05:04:54;22.60;43.90
76607;DHT22;65498;50.916;4.698;2023-01-01T05:07:22;22.60;44.10
76607;DHT22;65498;50.916;4.698;2023-01-01T05:09:49;22.60;44.00
76607;DHT22;65498;50.916;4.698;2023-01-01T05:12:17;22.60;43.80
76607;DHT22;65498;50.916;4.698;2023-01-01T05:14:44;22.50;44.00
76607;DHT22;65498;50.916;4.698;2023-01-01T05:17:12;22.50;44.00
76607;DHT22;65498;50.916;4.698;2023-01-01T05:19:40;22.50;44.10
76607;DHT22;65498;50.916;4.698;2023-01-01T05:22:07;22.50;44.10
76607;DHT22;65498;50.916;4.698;2023-01-01T05:24:36;22.50;44.00
76607;DHT22;65498;50.916;4.698;2023-01-01T05:27:04;22.60;44.10
76607;DHT22;65498;50.916;4.698;2023-01-01T05:29:32;22.60;44.00
76607;DHT22;65498;50.916;4.698;2023-01-01T05:31:59;22.60;44.00
76607;DHT22;65498;50.916;4.698;2023-01-01T05:34:27;22.60;43.90
76607;DHT22;65498;50.916;4.698;2023-01-01T05:36:54;22.60;44.10
76607;DHT22;65498;50.916;4.698;2023-01-01T05:39:22;22.50;43.90
76607;DHT22;65498;50.916;4.698;2023-01-01T05:41:49;22.60;43.80
76607;DHT22;65498;50.916;4.698;2023-01-01T05:44:17;22.60;43.70
76607;DHT22;65498;50.916;4.698;2023-01-01T05:46:45;22.60;44.00
76607;DHT22;65498;50.916;4.698;2023-01-01T05:49:12;22.60;43.70
76607;DHT22;65498;50.916;4.698;2023-01-01T05:51:40;22.60;43.90
76607;DHT22;65498;50.916;4.698;2023-01-01T05:54:09;22.60;44.10
76607;DHT22;65498;50.916;4.698;2023-01-01T05:56:37;22.60;44.20
76607;DHT22;65498;50.916;4.698;2023-01-01T05:59:05;22.60;44.10
76607;DHT22;65498;50.916;4.698;2023-01-01T06:01:32;22.60;44.30
76607;DHT22;65498;50.916;4.698;2023-01-01T06:04:00;22.50;44.30
76607;DHT22;65498;50.916;4.698;2023-01-01T06:06:30;22.50;44.40
76607;DHT22;65498;50.916;4.698;2023-01-01T06:09:01;22.50;44.40
76607;DHT22;65498;50.916;4.698;2023-01-01T06:11:29;22.50;44.60
76607;DHT22;65498;50.916;4.698;2023-01-01T06:13:59;22.50;44.50
76607;DHT22;65498;50.916;4.698;2023-01-01T06:16:28;22.50;44.50
76607;DHT22;65498;50.916;4.698;2023-01-01T06:18:56;22.50;44.60
76607;DHT22;65498;50.916;4.698;2023-01-01T06:21:25;22.50;44.60
76607;DHT22;65498;50.916;4.698;2023-01-01T06:23:55;22.50;44.60
76607;DHT22;65498;50.916;4.698;2023-01-01T06:26:23;22.50;44.50
76607;DHT22;65498;50.916;4.698;2023-01-01T06:28:51;22.50;44.30
76607;DHT22;65498;50.916;4.698;2023-01-01T06:31:20;22.50;44.50
76607;DHT22;65498;50.916;4.698;2023-01-01T06:33:49;22.50;44.40
76607;DHT22;65498;50.916;4.698;2023-01-01T06:36:19;22.60;44.50
76607;DHT22;65498;50.916;4.698;2023-01-01T06:38:50;22.60;44.60
76607;DHT22;65498;50.916;4.698;2023-01-01T06:41:20;22.50;44.50
76607;DHT22;65498;50.916;4.698;2023-01-01T06:43:48;22.50;44.60
76607;DHT22;65498;50.916;4.698;2023-01-01T06:46:19;22.60;45.10
76607;DHT22;65498;50.916;4.698;2023-01-01T06:48:48;22.60;44.80
76607;DHT22;65498;50.916;4.698;2023-01-01T06:51:19;22.50;44.80
76607;DHT22;65498;50.916;4.698;2023-01-01T06:53:48;22.50;45.00
76607;DHT22;65498;50.916;4.698;2023-01-01T06:56:17;22.40;44.90
76607;DHT22;65498;50.916;4.698;2023-01-01T06:58:45;22.40;44.90
76607;DHT22;65498;50.916;4.698;2023-01-01T07:01:18;22.40;45.10
76607;DHT22;65498;50.916;4.698;2023-01-01T07:03:54;22.40;45.20
76607;DHT22;65498;50.916;4.698;2023-01-01T07:06:22;22.40;45.10
76607;DHT22;65498;50.916;4.698;2023-01-01T07:08:50;22.40;45.30
76607;DHT22;65498;50.916;4.698;2023-01-01T07:11:19;22.40;45.20
76607;DHT22;65498;50.916;4.698;2023-01-01T07:13:47;22.40;45.20
76607;DHT22;65498;50.916;4.698;2023-01-01T07:16:14;22.40;45.10
76607;DHT22;65498;50.916;4.698;2023-01-01T07:18:41;22.40;45.10
76607;DHT22;65498;50.916;4.698;2023-01-01T07:21:27;22.50;45.00
76607;DHT22;65498;50.916;4.698;2023-01-01T07:24:02;22.50;45.00
76607;DHT22;65498;50.916;4.698;2023-01-01T07:26:24;22.50;45.00
76607;DHT22;65498;50.916;4.698;2023-01-01T07:28:52;22.50;45.10
76607;DHT22;65498;50.916;4.698;2023-01-01T07:31:20;22.50;45.10
76607;DHT22;65498;50.916;4.698;2023-01-01T07:33:47;22.50;45.10
76607;DHT22;65498;50.916;4.698;2023-01-01T07:36:15;22.50;45.00
76607;DHT22;65498;50.916;4.698;2023-01-01T07:38:43;22.50;45.30
76607;DHT22;65498;50.916;4.698;2023-01-01T07:41:10;22.50;45.30
76607;DHT22;65498;50.916;4.698;2023-01-01T07:43:38;22.50;45.30
76607;DHT22;65498;50.916;4.698;2023-01-01T07:46:05;22.50;45.40
76607;DHT22;65498;50.916;4.698;2023-01-01T07:48:33;22.50;45.30
76607;DHT22;65498;50.916;4.698;2023-01-01T07:51:00;22.50;45.50
76607;DHT22;65498;50.916;4.698;2023-01-01T07:53:28;22.40;45.50
76607;DHT22;65498;50.916;4.698;2023-01-01T07:55:56;22.40;45.60
76607;DHT22;65498;50.916;4.698;2023-01-01T07:58:24;22.40;45.60
76607;DHT22;65498;50.916;4.698;2023-01-01T08:00:51;22.40;45.50
76607;DHT22;65498;50.916;4.698;2023-01-01T08:03:19;22.40;45.60
76607;DHT22;65498;50.916;4.698;2023-01-01T08:05:47;22.40;45.60
76607;DHT22;65498;50.916;4.698;2023-01-01T08:08:14;22.40;45.60
76607;DHT22;65498;50.916;4.698;2023-01-01T08:10:42;22.40;45.80
76607;DHT22;65498;50.916;4.698;2023-01-01T08:13:09;22.40;45.60
76607;DHT22;65498;50.916;4.698;2023-01-01T08:15:37;22.50;45.80
76607;DHT22;65498;50.916;4.698;2023-01-01T08:18:04;22.50;45.80
76607;DHT22;65498;50.916;4.698;2023-01-01T08:20:33;22.50;45.90
76607;DHT22;65498;50.916;4.698;2023-01-01T08:23:01;22.50;46.00
76607;DHT22;65498;50.916;4.698;2023-01-01T08:25:28;22.50;45.90
76607;DHT22;65498;50.916;4.698;2023-01-01T08:27:56;22.50;46.00
76607;DHT22;65498;50.916;4.698;2023-01-01T08:30:23;22.50;45.90
76607;DHT22;65498;50.916;4.698;2023-01-01T08:32:51;22.50;46.00
76607;DHT22;65498;50.916;4.698;2023-01-01T08:35:18;22.50;46.40
76607;DHT22;65498;50.916;4.698;2023-01-01T08:37:46;22.40;46.60
76607;DHT22;65498;50.916;4.698;2023-01-01T08:40:14;22.40;46.90
76607;DHT22;65498;50.916;4.698;2023-01-01T08:42:41;22.40;47.00
76607;DHT22;65498;50.916;4.698;2023-01-01T08:45:09;22.40;46.90
76607;DHT22;65498;50.916;4.698;2023-01-01T08:47:36;22.40;46.90
76607;DHT22;65498;50.916;4.698;2023-01-01T08:50:04;22.50;46.60
76607;DHT22;65498;50.916;4.698;2023-01-01T08:52:32;22.50;46.50
76607;DHT22;65498;50.916;4.698;2023-01-01T08:55:00;22.60;46.50
76607;DHT22;65498;50.916;4.698;2023-01-01T08:57:29;22.50;46.30
76607;DHT22;65498;50.916;4.698;2023-01-01T08:59:57;22.50;46.40
76607;DHT22;65498;50.916;4.698;2023-01-01T09:02:24;22.50;46.50
76607;DHT22;65498;50.916;4.698;2023-01-01T09:04:52;22.40;46.50
76607;DHT22;65498;50.916;4.698;2023-01-01T09:07:20;22.40;46.50
76607;DHT22;65498;50.916;4.698;2023-01-01T09:09:48;22.40;46.60
76607;DHT22;65498;50.916;4.698;2023-01-01T09:12:16;22.50;46.60
76607;DHT22;65498;50.916;4.698;2023-01-01T09:14:47;22.50;46.50
76607;DHT22;65498;50.916;4.698;2023-01-01T09:17:15;22.40;46.50
76607;DHT22;65498;50.916;4.698;2023-01-01T09:19:42;22.40;46.80
76607;DHT22;65498;50.916;4.698;2023-01-01T09:22:10;22.40;47.00
76607;DHT22;65498;50.916;4.698;2023-01-01T09:24:38;22.30;47.20
76607;DHT22;65498;50.916;4.698;2023-01-01T09:27:05;22.20;47.20
76607;DHT22;65498;50.916;4.698;2023-01-01T09:29:33;22.30;47.30
76607;DHT22;65498;50.916;4.698;2023-01-01T09:32:00;22.30;47.40
76607;DHT22;65498;50.916;4.698;2023-01-01T09:34:28;22.30;47.20
76607;DHT22;65498;50.916;4.698;2023-01-01T09:36:56;22.30;47.20
76607;DHT22;65498;50.916;4.698;2023-01-01T09:39:23;22.50;46.90
76607;DHT22;65498;50.916;4.698;2023-01-01T09:44:52;22.60;46.50
76607;DHT22;65498;50.916;4.698;2023-01-01T09:47:29;22.60;46.50
76607;DHT22;65498;50.916;4.698;2023-01-01T09:49:59;22.70;46.40
76607;DHT22;65498;50.916;4.698;2023-01-01T09:53:15;22.70;46.30
76607;DHT22;65498;50.916;4.698;2023-01-01T09:54:59;22.60;46.50
76607;DHT22;65498;50.916;4.698;2023-01-01T09:57:30;22.60;46.60
76607;DHT22;65498;50.916;4.698;2023-01-01T09:59:59;22.60;46.50
76607;DHT22;65498;50.916;4.698;2023-01-01T10:02:48;22.50;46.50
76607;DHT22;65498;50.916;4.698;2023-01-01T10:10:47;22.50;46.60
76607;DHT22;65498;50.916;4.698;2023-01-01T10:13:33;22.50;46.70
76607;DHT22;65498;50.916;4.698;2023-01-01T10:18:51;22.40;46.90
76607;DHT22;65498;50.916;4.698;2023-01-01T10:21:32;22.30;47.20
76607;DHT22;65498;50.916;4.698;2023-01-01T10:24:21;22.20;47.40
76607;DHT22;65498;50.916;4.698;2023-01-01T10:26:36;22.30;47.40
76607;DHT22;65498;50.916;4.698;2023-01-01T10:31:44;22.30;47.20
76607;DHT22;65498;50.916;4.698;2023-01-01T10:34:20;22.40;47.20
76607;DHT22;65498;50.916;4.698;2023-01-01T10:36:50;22.50;46.90
76607;DHT22;65498;50.916;4.698;2023-01-01T10:39:18;22.60;46.60
76607;DHT22;65498;50.916;4.698;2023-01-01T10:41:47;22.70;46.50
76607;DHT22;65498;50.916;4.698;2023-01-01T10:44:21;22.70;46.40
76607;DHT22;65498;50.916;4.698;2023-01-01T10:46:51;22.70;46.50
76607;DHT22;65498;50.916;4.698;2023-01-01T10:49:18;22.70;46.50
76607;DHT22;65498;50.916;4.698;2023-01-01T10:51:48;22.70;46.40
76607;DHT22;65498;50.916;4.698;2023-01-01T10:54:31;22.70;46.30
76607;DHT22;65498;50.916;4.698;2023-01-01T10:57:15;22.70;46.50
76607;DHT22;65498;50.916;4.698;2023-01-01T10:59:44;22.60;46.50
76607;DHT22;65498;50.916;4.698;2023-01-01T11:02:20;22.60;46.60
76607;DHT22;65498;50.916;4.698;2023-01-01T11:04:50;22.60;46.70
76607;DHT22;65498;50.916;4.698;2023-01-01T11:07:29;22.60;46.80
76607;DHT22;65498;50.916;4.698;2023-01-01T11:09:49;22.70;46.70
76607;DHT22;65498;50.916;4.698;2023-01-01T11:12:19;22.70;46.80
76607;DHT22;65498;50.916;4.698;2023-01-01T11:14:54;22.60;46.70
76607;DHT22;65498;50.916;4.698;2023-01-01T11:17:26;22.80;46.60
76607;DHT22;65498;50.916;4.698;2023-01-01T11:19:54;22.90;46.20
76607;DHT22;65498;50.916;4.698;2023-01-01T11:22:38;22.90;46.10
76607;DHT22;65498;50.916;4.698;2023-01-01T11:25:24;23.00;46.20
76607;DHT22;65498;50.916;4.698;2023-01-01T11:28:12;23.00;46.20
76607;DHT22;65498;50.916;4.698;2023-01-01T11:30:26;23.10;46.20
76607;DHT22;65498;50.916;4.698;2023-01-01T11:32:59;23.00;46.40
76607;DHT22;65498;50.916;4.698;2023-01-01T11:35:36;22.90;46.60
76607;DHT22;65498;50.916;4.698;2023-01-01T11:37:58;22.90;46.50
76607;DHT22;65498;50.916;4.698;2023-01-01T11:40:37;23.10;46.50
76607;DHT22;65498;50.916;4.698;2023-01-01T11:43:05;23.20;46.40
76607;DHT22;65498;50.916;4.698;2023-01-01T11:45:38;23.20;46.20
76607;DHT22;65498;50.916;4.698;2023-01-01T11:48:26;23.20;46.20
76607;DHT22;65498;50.916;4.698;2023-01-01T11:50:52;23.20;46.00
76607;DHT22;65498;50.916;4.698;2023-01-01T11:56:02;23.30;45.80
76607;DHT22;65498;50.916;4.698;2023-01-01T11:58:33;23.30;45.60
76607;DHT22;65498;50.916;4.698;2023-01-01T12:03:42;23.10;46.10
76607;DHT22;65498;50.916;4.698;2023-01-01T12:09:00;22.70;47.10
76607;DHT22;65498;50.916;4.698;2023-01-01T12:11:35;22.60;47.30
76607;DHT22;65498;50.916;4.698;2023-01-01T12:22:20;22.80;47.00
76607;DHT22;65498;50.916;4.698;2023-01-01T12:24:48;22.90;46.70
76607;DHT22;65498;50.916;4.698;2023-01-01T12:35:39;22.80;46.70
76607;DHT22;65498;50.916;4.698;2023-01-01T12:38:24;22.70;46.40
76607;DHT22;65498;50.916;4.698;2023-01-01T12:41:25;22.70;46.50
76607;DHT22;65498;50.916;4.698;2023-01-01T12:44:07;22.70;46.30
76607;DHT22;65498;50.916;4.698;2023-01-01T12:46:50;22.80;46.30
76607;DHT22;65498;50.916;4.698;2023-01-01T12:57:52;22.60;46.90
76607;DHT22;65498;50.916;4.698;2023-01-01T13:00:20;22.60;47.10
76607;DHT22;65498;50.916;4.698;2023-01-01T13:02:50;22.60;46.80
76607;DHT22;65498;50.916;4.698;2023-01-01T13:05:39;22.70;47.10
76607;DHT22;65498;50.916;4.698;2023-01-01T13:07:55;22.60;47.10
76607;DHT22;65498;50.916;4.698;2023-01-01T13:12:56;22.70;46.80
76607;DHT22;65498;50.916;4.698;2023-01-01T13:15:41;22.70;46.50
76607;DHT22;65498;50.916;4.698;2023-01-01T13:20:54;22.80;46.10
76607;DHT22;65498;50.916;4.698;2023-01-01T13:39:58;22.80;45.90
76607;DHT22;65498;50.916;4.698;2023-01-01T13:45:42;22.80;45.80
76607;DHT22;65498;50.916;4.698;2023-01-01T13:48:43;22.80;45.80
76607;DHT22;65498;50.916;4.698;2023-01-01T13:51:29;22.70;45.80
76607;DHT22;65498;50.916;4.698;2023-01-01T13:57:05;22.70;45.90
76607;DHT22;65498;50.916;4.698;2023-01-01T14:02:29;22.60;46.10
76607;DHT22;65498;50.916;4.698;2023-01-01T14:05:13;22.50;46.20
76607;DHT22;65498;50.916;4.698;2023-01-01T14:07:48;22.60;46.20
76607;DHT22;65498;50.916;4.698;2023-01-01T14:12:48;22.60;45.90
76607;DHT22;65498;50.916;4.698;2023-01-01T14:15:30;22.60;45.90
76607;DHT22;65498;50.916;4.698;2023-01-01T14:18:00;22.70;46.00
76607;DHT22;65498;50.916;4.698;2023-01-01T14:20:39;22.70;46.00
76607;DHT22;65498;50.916;4.698;2023-01-01T14:25:53;22.70;45.70
76607;DHT22;65498;50.916;4.698;2023-01-01T14:28:26;22.80;45.70
76607;DHT22;65498;50.916;4.698;2023-01-01T14:30:55;22.80;45.60
76607;DHT22;65498;50.916;4.698;2023-01-01T14:33:28;22.80;45.80
76607;DHT22;65498;50.916;4.698;2023-01-01T14:36:02;22.80;45.90
76607;DHT22;65498;50.916;4.698;2023-01-01T14:38:41;22.80;46.50
76607;DHT22;65498;50.916;4.698;2023-01-01T14:41:07;22.70;45.90
76607;DHT22;65498;50.916;4.698;2023-01-01T14:43:38;22.80;45.90
76607;DHT22;65498;50.916;4.698;2023-01-01T14:46:07;22.80;45.90
76607;DHT22;65498;50.916;4.698;2023-01-01T14:48:36;22.70;45.90
76607;DHT22;65498;50.916;4.698;2023-01-01T14:51:03;22.60;46.10
76607;DHT22;65498;50.916;4.698;2023-01-01T14:53:32;22.60;46.10
76607;DHT22;65498;50.916;4.698;2023-01-01T14:56:00;22.60;46.20
76607;DHT22;65498;50.916;4.698;2023-01-01T14:58:29;22.60;46.70
76607;DHT22;65498;50.916;4.698;2023-01-01T15:01:14;22.50;46.30
76607;DHT22;65498;50.916;4.698;2023-01-01T15:03:56;22.50;46.30
76607;DHT22;65498;50.916;4.698;2023-01-01T15:06:24;22.60;46.20
76607;DHT22;65498;50.916;4.698;2023-01-01T15:08:52;22.60;46.20
76607;DHT22;65498;50.916;4.698;2023-01-01T15:11:20;22.70;46.20
76607;DHT22;65498;50.916;4.698;2023-01-01T15:13:57;22.70;46.10
76607;DHT22;65498;50.916;4.698;2023-01-01T15:16:26;22.70;46.00
76607;DHT22;65498;50.916;4.698;2023-01-01T15:18:54;22.70;46.00
76607;DHT22;65498;50.916;4.698;2023-01-01T15:21:33;22.70;46.00
76607;DHT22;65498;50.916;4.698;2023-01-01T15:24:09;22.70;46.00
76607;DHT22;65498;50.916;4.698;2023-01-01T15:29:13;22.70;46.20
76607;DHT22;65498;50.916;4.698;2023-01-01T15:31:45;22.70;46.10
76607;DHT22;65498;50.916;4.698;2023-01-01T15:34:24;22.70;46.10
76607;DHT22;65498;50.916;4.698;2023-01-01T15:36:55;22.60;46.20
76607;DHT22;65498;50.916;4.698;2023-01-01T15:39:23;22.60;46.20
76607;DHT22;65498;50.916;4.698;2023-01-01T15:41:52;22.60;46.40
76607;DHT22;65498;50.916;4.698;2023-01-01T15:44:27;22.50;46.50
76607;DHT22;65498;50.916;4.698;2023-01-01T15:47:04;22.50;46.60
76607;DHT22;65498;50.916;4.698;2023-01-01T15:49:29;22.50;46.40
76607;DHT22;65498;50.916;4.698;2023-01-01T15:52:01;22.60;46.40
76607;DHT22;65498;50.916;4.698;2023-01-01T15:54:29;22.50;46.30
76607;DHT22;65498;50.916;4.698;2023-01-01T15:56:58;22.60;46.40
76607;DHT22;65498;50.916;4.698;2023-01-01T15:59:32;22.60;46.40
76607;DHT22;65498;50.916;4.698;2023-01-01T16:02:27;22.60;46.30
76607;DHT22;65498;50.916;4.698;2023-01-01T16:04:33;22.70;46.20
76607;DHT22;65498;50.916;4.698;2023-01-01T16:07:01;22.70;46.30
76607;DHT22;65498;50.916;4.698;2023-01-01T16:09:28;22.60;46.30
76607;DHT22;65498;50.916;4.698;2023-01-01T16:11:56;22.60;46.60
76607;DHT22;65498;50.916;4.698;2023-01-01T16:14:25;22.60;46.60
76607;DHT22;65498;50.916;4.698;2023-01-01T16:16:54;22.60;46.50
76607;DHT22;65498;50.916;4.698;2023-01-01T16:19:24;22.60;46.60
76607;DHT22;65498;50.916;4.698;2023-01-01T16:21:52;22.60;46.40
76607;DHT22;65498;50.916;4.698;2023-01-01T16:24:20;22.70;46.50
76607;DHT22;65498;50.916;4.698;2023-01-01T16:26:48;22.60;46.50
76607;DHT22;65498;50.916;4.698;2023-01-01T16:29:15;22.60;46.70
76607;DHT22;65498;50.916;4.698;2023-01-01T16:31:44;22.60;46.70
76607;DHT22;65498;50.916;4.698;2023-01-01T16:34:13;22.60;46.80
76607;DHT22;65498;50.916;4.698;2023-01-01T16:36:42;22.60;46.70
76607;DHT22;65498;50.916;4.698;2023-01-01T16:39:10;22.50;46.90
76607;DHT22;65498;50.916;4.698;2023-01-01T16:41:42;22.60;46.80
76607;DHT22;65498;50.916;4.698;2023-01-01T16:44:14;22.60;46.90
76607;DHT22;65498;50.916;4.698;2023-01-01T16:46:42;22.60;46.80
76607;DHT22;65498;50.916;4.698;2023-01-01T16:49:10;22.50;46.80
76607;DHT22;65498;50.916;4.698;2023-01-01T16:51:38;22.50;46.80
76607;DHT22;65498;50.916;4.698;2023-01-01T16:54:06;22.50;47.10
76607;DHT22;65498;50.916;4.698;2023-01-01T16:56:33;22.40;47.20
76607;DHT22;65498;50.916;4.698;2023-01-01T16:59:01;22.40;47.30
76607;DHT22;65498;50.916;4.698;2023-01-01T17:01:28;22.40;47.20
76607;DHT22;65498;50.916;4.698;2023-01-01T17:03:56;22.40;47.20
76607;DHT22;65498;50.916;4.698;2023-01-01T17:06:24;22.40;47.20
76607;DHT22;65498;50.916;4.698;2023-01-01T17:08:51;22.50;47.20
76607;DHT22;65498;50.916;4.698;2023-01-01T17:11:19;22.50;47.10
76607;DHT22;65498;50.916;4.698;2023-01-01T17:13:48;22.60;47.10
76607;DHT22;65498;50.916;4.698;2023-01-01T17:16:16;22.60;46.90
76607;DHT22;65498;50.916;4.698;2023-01-01T17:18:49;22.60;47.10
76607;DHT22;65498;50.916;4.698;2023-01-01T17:21:17;22.60;47.10
76607;DHT22;65498;50.916;4.698;2023-01-01T17:23:45;22.50;47.30
76607;DHT22;65498;50.916;4.698;2023-01-01T17:26:18;22.40;47.60
76607;DHT22;65498;50.916;4.698;2023-01-01T17:28:48;22.40;47.50
76607;DHT22;65498;50.916;4.698;2023-01-01T17:31:18;22.40;47.50
76607;DHT22;65498;50.916;4.698;2023-01-01T17:33:47;22.40;47.40
76607;DHT22;65498;50.916;4.698;2023-01-01T17:36:15;22.40;47.50
76607;DHT22;65498;50.916;4.698;2023-01-01T17:38:42;22.40;47.50
76607;DHT22;65498;50.916;4.698;2023-01-01T17:41:12;22.50;47.50
76607;DHT22;65498;50.916;4.698;2023-01-01T17:43:43;22.40;47.60